Fidato — PB5970 — position and weather

sailwx.info

Track history (hours):
 
Tides and Currents Weather Stations Pressure Air Temp Water Temp Dewpoint Dewpoint Depression Visibility Wind Speed Wind Dir Waves Ship Positions

Fidato

Last reported at 2014-Jul-28 11:33 UTC. Time now 2014-Jul-28 12:23 UTC.
Position N 51°53' E 004°17'.

Length 135 m; draft 2.5 m.

Type: Ship. MMSI: 244670975.

Date/timePositionNaut miles runAvg speedWind from/ knotsBaromVisibWave heightAir tempDewpointWater temp
2014-Jul-28 11:33N 51°53' E 004°17'0 0.0
2014-Jul-28 10:34N 51°53' E 004°17'0 0.0
2014-Jul-28 09:33N 51°53' E 004°17'0 0.0
2014-Jul-28 08:33N 51°53' E 004°17'0 0.0
2014-Jul-28 07:33N 51°53' E 004°17'0 0.0
2014-Jul-28 06:34N 51°53' E 004°17'0 0.0
2014-Jul-28 05:33N 51°53' E 004°17'5 4.9
2014-Jul-28 04:33N 51°54' E 004°24'3 2.8
2014-Jul-28 03:33N 51°54' E 004°29'0 0.0
2014-Jul-28 02:33N 51°54' E 004°29'0 0.0
2014-Jul-28 01:33N 51°54' E 004°29'0 0.0
2014-Jul-28 00:33N 51°54' E 004°29'0 0.0
2014-Jul-27 23:33N 51°54' E 004°29'0 0.0
2014-Jul-27 22:33N 51°54' E 004°29'0 0.0
2014-Jul-27 21:33N 51°54' E 004°29'0 0.0
2014-Jul-27 20:33N 51°54' E 004°29'0 0.0
2014-Jul-27 19:33N 51°54' E 004°29'0 0.0
2014-Jul-27 18:34N 51°54' E 004°29'0 0.0
2014-Jul-27 17:34N 51°54' E 004°29'0 0.0
2014-Jul-27 16:33N 51°54' E 004°29'0 0.0
2014-Jul-27 15:34N 51°54' E 004°29'0 0.3
2014-Jul-27 14:34N 51°54' E 004°28'3 2.6
2014-Jul-27 13:33N 51°54' E 004°33'7 7.6
2014-Jul-27 12:33N 51°49' E 004°42'8 8.2
2014-Jul-27 11:33N 51°50' E 004°55'8 8.3
2014-Jul-27 10:33N 51°49' E 005°08'8 8.3
2014-Jul-27 09:33N 51°48' E 005°22'8 8.4
2014-Jul-27 08:33N 51°54' E 005°32'12 8.9
2014-Jul-27 07:15N 51°51' E 005°51'16 7.8
2014-Jul-27 05:14N 51°49' E 006°16'  
2014-Jul-20 08:30N 49°43' E 008°25'90 2.3
2014-Jul-18 17:05N 50°55' E 006°59'16 3.3
2014-Jul-18 12:23N 51°09' E 006°48'3 3.3
2014-Jul-18 11:33N 51°11' E 006°45'  
Track history (hours):
 
Tides and Currents Weather Stations Pressure Air Temp Water Temp Dewpoint Dewpoint Depression Visibility Wind Speed Wind Dir Waves Ship Positions

Fidato

Last reported at 2014-Jul-28 11:33 UTC. Time now 2014-Jul-28 12:23 UTC.
Position N 51°53' E 004°17'.

Length 135 m; draft 2.5 m.

Type: Ship. MMSI: 244670975.

Date/timePositionNaut miles runAvg speedWind from/ knotsBaromVisibWave heightAir tempDewpointWater temp
2014-Jul-28 11:33N 51°53' E 004°17'0 0.0
2014-Jul-28 10:34N 51°53' E 004°17'0 0.0
2014-Jul-28 09:33N 51°53' E 004°17'0 0.0
2014-Jul-28 08:33N 51°53' E 004°17'0 0.0
2014-Jul-28 07:33N 51°53' E 004°17'0 0.0
2014-Jul-28 06:34N 51°53' E 004°17'0 0.0
2014-Jul-28 05:33N 51°53' E 004°17'5 4.9
2014-Jul-28 04:33N 51°54' E 004°24'3 2.8
2014-Jul-28 03:33N 51°54' E 004°29'0 0.0
2014-Jul-28 02:33N 51°54' E 004°29'0 0.0
2014-Jul-28 01:33N 51°54' E 004°29'0 0.0
2014-Jul-28 00:33N 51°54' E 004°29'0 0.0
2014-Jul-27 23:33N 51°54' E 004°29'0 0.0
2014-Jul-27 22:33N 51°54' E 004°29'0 0.0
2014-Jul-27 21:33N 51°54' E 004°29'0 0.0
2014-Jul-27 20:33N 51°54' E 004°29'0 0.0
2014-Jul-27 19:33N 51°54' E 004°29'0 0.0
2014-Jul-27 18:34N 51°54' E 004°29'0 0.0
2014-Jul-27 17:34N 51°54' E 004°29'0 0.0
2014-Jul-27 16:33N 51°54' E 004°29'0 0.0
2014-Jul-27 15:34N 51°54' E 004°29'0 0.3
2014-Jul-27 14:34N 51°54' E 004°28'3 2.6
2014-Jul-27 13:33N 51°54' E 004°33'7 7.6
2014-Jul-27 12:33N 51°49' E 004°42'8 8.2
2014-Jul-27 11:33N 51°50' E 004°55'8 8.3
2014-Jul-27 10:33N 51°49' E 005°08'8 8.3
2014-Jul-27 09:33N 51°48' E 005°22'8 8.4
2014-Jul-27 08:33N 51°54' E 005°32'12 8.9
2014-Jul-27 07:15N 51°51' E 005°51'16 7.8
2014-Jul-27 05:14N 51°49' E 006°16'  
2014-Jul-20 08:30N 49°43' E 008°25'90 2.3
2014-Jul-18 17:05N 50°55' E 006°59'16 3.3
2014-Jul-18 12:23N 51°09' E 006°48'3 3.3
2014-Jul-18 11:33N 51°11' E 006°45'  

Dump ship's entire track history